createdAt,value
2018-09-11T00:01:02.600Z,2.33
2018-09-11T00:03:31.185Z,2.33
2018-09-11T00:05:59.806Z,2.60
2018-09-11T00:08:28.593Z,2.87
2018-09-11T00:10:57.333Z,2.27
2018-09-11T00:13:26.221Z,1.97
2018-09-11T00:15:55.012Z,2.70
2018-09-11T00:18:23.821Z,2.70
2018-09-11T00:20:52.620Z,2.27
2018-09-11T00:23:21.548Z,2.63
2018-09-11T00:25:50.335Z,2.77
2018-09-11T00:28:19.223Z,2.73
2018-09-11T00:30:48.495Z,2.80
2018-09-11T00:33:17.335Z,2.63
2018-09-11T00:35:46.136Z,2.33
2018-09-11T00:38:14.981Z,2.63
2018-09-11T00:40:43.741Z,2.47
2018-09-11T00:43:12.552Z,2.30
2018-09-11T00:45:41.282Z,2.67
2018-09-11T00:48:10.096Z,2.30
2018-09-11T00:50:38.947Z,2.43
2018-09-11T00:53:07.781Z,2.47
2018-09-11T00:55:36.597Z,2.30
2018-09-11T00:58:05.565Z,3.10
2018-09-11T01:00:34.290Z,2.80
2018-09-11T01:03:03.154Z,2.57
2018-09-11T01:05:32.001Z,2.20
2018-09-11T01:08:00.853Z,2.30
2018-09-11T01:10:29.577Z,2.30
2018-09-11T01:12:58.363Z,2.53
2018-09-11T01:15:27.149Z,2.43
2018-09-11T01:17:56.017Z,2.33
2018-09-11T01:20:24.882Z,2.73
2018-09-11T01:22:53.649Z,2.70
2018-09-11T01:25:22.413Z,2.37
2018-09-11T01:27:51.218Z,2.70
2018-09-11T01:30:21.240Z,2.47
2018-09-11T01:32:50.996Z,2.70
2018-09-11T01:35:20.204Z,2.40
2018-09-11T01:37:49.054Z,2.10
2018-09-11T01:40:17.925Z,2.23
2018-09-11T01:42:46.755Z,2.33
2018-09-11T01:45:15.659Z,2.70
2018-09-11T01:47:44.578Z,2.57
2018-09-11T01:50:13.360Z,2.60
2018-09-11T01:52:42.020Z,2.50
2018-09-11T01:55:10.784Z,2.70
2018-09-11T01:57:39.624Z,2.57
2018-09-11T02:00:12.653Z,2.43
2018-09-11T02:02:41.476Z,2.60
2018-09-11T02:05:10.249Z,2.27
2018-09-11T02:07:39.054Z,2.33
2018-09-11T02:10:07.844Z,2.67
2018-09-11T02:12:36.557Z,2.80
2018-09-11T02:15:05.428Z,3.00
2018-09-11T02:17:34.124Z,2.70
2018-09-11T02:20:02.982Z,2.40
2018-09-11T02:22:31.764Z,2.80
2018-09-11T02:25:00.317Z,2.30
2018-09-11T02:27:29.116Z,2.47
2018-09-11T02:29:57.646Z,2.80
2018-09-11T02:32:26.400Z,2.80
2018-09-11T02:34:54.969Z,2.90
2018-09-11T02:37:23.489Z,2.70
2018-09-11T02:39:52.103Z,2.90
2018-09-11T02:42:20.625Z,2.77
2018-09-11T02:44:49.171Z,2.40
2018-09-11T02:47:17.675Z,2.97
2018-09-11T02:49:46.266Z,2.50
2018-09-11T02:52:14.804Z,2.23
2018-09-11T02:54:43.389Z,2.13
2018-09-11T02:57:11.949Z,2.27
2018-09-11T02:59:40.476Z,2.27
2018-09-11T03:02:09.018Z,2.10
2018-09-11T03:04:37.548Z,2.50
2018-09-11T03:07:06.091Z,2.30
2018-09-11T03:09:34.634Z,2.73
2018-09-11T03:12:03.164Z,2.50
2018-09-11T03:14:31.709Z,2.70
2018-09-11T03:17:00.235Z,2.50
2018-09-11T03:19:28.789Z,2.10
2018-09-11T03:21:57.297Z,2.50
2018-09-11T03:24:25.840Z,2.20
2018-09-11T03:26:54.352Z,2.20
2018-09-11T03:29:22.898Z,2.30
2018-09-11T03:31:51.419Z,3.37
2018-09-11T03:34:19.964Z,2.53
2018-09-11T03:36:48.474Z,2.47
2018-09-11T03:39:16.991Z,2.47
2018-09-11T03:41:45.480Z,2.57
2018-09-11T03:44:14.101Z,2.27
2018-09-11T03:46:42.571Z,2.40
2018-09-11T03:49:11.105Z,2.63
2018-09-11T03:51:39.641Z,2.50
2018-09-11T03:54:08.131Z,2.10
2018-09-11T03:56:36.726Z,2.27
2018-09-11T03:59:05.478Z,2.20
2018-09-11T04:01:33.997Z,2.57
2018-09-11T04:04:02.497Z,2.47
2018-09-11T04:06:31.012Z,2.40
2018-09-11T04:08:59.523Z,2.13
2018-09-11T04:11:28.077Z,2.63
2018-09-11T04:13:56.604Z,2.17
2018-09-11T04:16:25.160Z,2.30
2018-09-11T04:18:53.710Z,3.20
2018-09-11T04:21:22.237Z,4.77
2018-09-11T04:23:50.732Z,4.57
2018-09-11T04:26:19.337Z,3.43
2018-09-11T04:28:47.893Z,4.10
2018-09-11T04:31:16.475Z,2.90
2018-09-11T04:33:45.013Z,2.77
2018-09-11T04:36:13.558Z,2.73
2018-09-11T04:38:42.119Z,2.77
2018-09-11T04:41:10.684Z,2.60
2018-09-11T04:43:39.200Z,2.43
2018-09-11T04:46:11.383Z,2.87
2018-09-11T04:48:41.077Z,4.37
2018-09-11T04:51:09.607Z,3.63
2018-09-11T04:53:38.184Z,2.63
2018-09-11T04:56:06.977Z,1.97
2018-09-11T04:58:35.733Z,2.90
2018-09-11T05:01:04.269Z,2.27
2018-09-11T05:03:32.821Z,2.50
2018-09-11T05:06:01.344Z,2.40
2018-09-11T05:08:30.036Z,2.50
2018-09-11T05:10:58.636Z,2.83
2018-09-11T05:13:27.151Z,3.90
2018-09-11T05:15:55.708Z,7.57
2018-09-11T05:18:24.249Z,4.57
2018-09-11T05:20:52.800Z,3.03
2018-09-11T05:23:21.291Z,5.00
2018-09-11T05:25:49.908Z,4.60
2018-09-11T05:28:18.446Z,4.17
2018-09-11T05:30:47.111Z,2.60
2018-09-11T05:33:15.615Z,2.73
2018-09-11T05:35:44.176Z,2.60
2018-09-11T05:38:13.483Z,2.60
2018-09-11T05:40:42.083Z,2.70
2018-09-11T05:43:18.575Z,2.70
2018-09-11T05:45:47.159Z,2.90
2018-09-11T05:48:15.679Z,2.67
2018-09-11T05:50:44.317Z,2.57
2018-09-11T05:53:12.837Z,2.70
2018-09-11T05:55:41.441Z,2.97
2018-09-11T05:58:10.044Z,2.53
2018-09-11T06:00:38.543Z,3.47
2018-09-11T06:03:07.295Z,2.73
2018-09-11T06:05:35.800Z,2.70
2018-09-11T06:08:04.372Z,2.50
2018-09-11T06:10:32.880Z,2.40
2018-09-11T06:13:01.500Z,2.77
2018-09-11T06:15:30.028Z,2.80
2018-09-11T06:17:58.592Z,3.20
2018-09-11T06:20:27.352Z,3.00
2018-09-11T06:22:56.023Z,2.87
2018-09-11T06:25:24.853Z,3.20
2018-09-11T06:27:53.617Z,3.30
2018-09-11T06:30:22.464Z,3.00
2018-09-11T06:32:51.028Z,3.47
2018-09-11T06:35:19.567Z,2.80
2018-09-11T06:37:48.098Z,2.87
2018-09-11T06:40:16.607Z,3.53
2018-09-11T06:42:45.147Z,4.30
2018-09-11T06:45:13.742Z,4.30
2018-09-11T06:47:42.328Z,4.80
2018-09-11T06:50:10.816Z,4.37
2018-09-11T06:52:39.414Z,3.67
2018-09-11T06:55:07.940Z,4.10
2018-09-11T06:57:36.527Z,3.27
2018-09-11T07:00:05.133Z,3.70
2018-09-11T07:02:33.732Z,3.30
2018-09-11T07:05:02.266Z,3.13
2018-09-11T07:07:31.020Z,3.73
2018-09-11T07:09:59.877Z,3.77
2018-09-11T07:12:28.400Z,3.97
2018-09-11T07:14:56.956Z,4.00
2018-09-11T07:17:25.505Z,3.77
2018-09-11T07:19:54.106Z,4.07
2018-09-11T07:22:22.596Z,3.87
2018-09-11T07:24:51.150Z,4.60
2018-09-11T07:27:19.879Z,4.00
2018-09-11T07:29:48.847Z,4.23
2018-09-11T07:32:17.668Z,4.00
2018-09-11T07:34:46.448Z,4.80
2018-09-11T07:37:15.311Z,4.47
2018-09-11T07:39:44.080Z,4.70
2018-09-11T07:42:12.929Z,4.40
2018-09-11T07:44:41.680Z,4.87
2018-09-11T07:47:10.546Z,4.60
2018-09-11T07:49:39.400Z,4.17
2018-09-11T07:52:08.332Z,4.20
2018-09-11T07:54:37.084Z,3.97
2018-09-11T07:57:05.875Z,4.00
2018-09-11T07:59:34.719Z,4.30
2018-09-11T08:02:03.557Z,3.90
2018-09-11T08:04:32.348Z,3.30
2018-09-11T08:07:01.252Z,3.37
2018-09-11T08:09:30.105Z,3.20
2018-09-11T08:11:58.938Z,3.37
2018-09-11T08:14:27.679Z,3.23
2018-09-11T08:16:56.549Z,3.10
2018-09-11T08:19:25.293Z,2.93
2018-09-11T08:21:54.074Z,3.20
2018-09-11T08:24:22.812Z,3.00
2018-09-11T08:26:51.624Z,2.97
2018-09-11T08:29:20.455Z,3.37
2018-09-11T08:31:49.278Z,2.83
2018-09-11T08:34:18.053Z,3.53
2018-09-11T08:36:46.996Z,3.20
2018-09-11T08:39:15.772Z,3.03
2018-09-11T08:41:44.484Z,3.23
2018-09-11T08:44:13.369Z,3.30
2018-09-11T08:46:42.179Z,2.97
2018-09-11T08:49:10.929Z,2.53
2018-09-11T08:51:39.677Z,2.83
2018-09-11T08:54:08.440Z,2.90
2018-09-11T08:56:37.212Z,3.03
2018-09-11T08:59:06.249Z,2.93
2018-09-11T09:01:35.048Z,3.20
2018-09-11T09:04:03.825Z,3.50
2018-09-11T09:06:32.640Z,2.90
2018-09-11T09:09:01.455Z,3.43
2018-09-11T09:11:30.199Z,3.47
2018-09-11T09:13:58.964Z,3.07
2018-09-11T09:16:27.725Z,3.50
2018-09-11T09:18:56.632Z,2.73
2018-09-11T09:21:25.361Z,2.77
2018-09-11T09:23:54.193Z,2.57
2018-09-11T09:26:22.996Z,3.00
2018-09-11T09:28:51.743Z,2.80
2018-09-11T09:31:20.621Z,2.93
2018-09-11T09:33:49.432Z,2.67
2018-09-11T09:36:18.261Z,2.53
2018-09-11T09:38:47.210Z,2.70
2018-09-11T09:41:15.928Z,2.80
2018-09-11T09:43:44.777Z,2.40
2018-09-11T09:46:13.543Z,2.17
2018-09-11T09:48:42.216Z,2.30
2018-09-11T09:51:10.708Z,2.00
2018-09-11T09:53:39.296Z,2.20
2018-09-11T09:56:07.817Z,1.97
2018-09-11T09:58:36.357Z,2.00
2018-09-11T10:01:10.180Z,2.50
2018-09-11T10:03:38.948Z,2.47
2018-09-11T10:06:07.657Z,2.30
2018-09-11T10:08:36.470Z,1.90
2018-09-11T10:11:05.256Z,2.13
2018-09-11T10:13:33.764Z,2.20
2018-09-11T10:16:02.256Z,2.40
2018-09-11T10:18:30.776Z,2.00
2018-09-11T10:20:59.277Z,2.30
2018-09-11T10:23:27.784Z,1.90
2018-09-11T10:25:56.316Z,2.10
2018-09-11T10:28:24.876Z,1.90
2018-09-11T10:30:53.477Z,1.97
2018-09-11T10:33:22.017Z,1.83
2018-09-11T10:35:50.557Z,2.17
2018-09-11T10:38:19.089Z,2.10
2018-09-11T10:40:47.616Z,1.70
2018-09-11T10:43:16.190Z,1.90
2018-09-11T10:45:44.742Z,1.90
2018-09-11T10:48:13.241Z,2.40
2018-09-11T10:50:41.923Z,2.07
2018-09-11T10:53:10.677Z,2.03
2018-09-11T10:55:39.449Z,2.00
2018-09-11T10:58:08.180Z,2.00
2018-09-11T11:00:36.960Z,2.30
2018-09-11T11:03:05.718Z,2.20
2018-09-11T11:05:34.500Z,1.97
2018-09-11T11:08:03.365Z,1.80
2018-09-11T11:10:32.329Z,1.60
2018-09-11T11:13:01.448Z,2.30
2018-09-11T11:15:30.265Z,2.10
2018-09-11T11:17:59.154Z,2.20
2018-09-11T11:20:27.934Z,2.00
2018-09-11T11:22:56.739Z,1.80
2018-09-11T11:25:25.357Z,2.00
2018-09-11T11:27:53.892Z,2.10
2018-09-11T11:30:22.686Z,1.97
2018-09-11T11:32:54.611Z,1.60
2018-09-11T11:35:23.160Z,2.10
2018-09-11T11:37:51.656Z,1.90
2018-09-11T11:40:20.216Z,2.30
2018-09-11T11:42:48.793Z,2.20
2018-09-11T11:45:17.300Z,2.03
2018-09-11T11:47:45.856Z,1.87
2018-09-11T11:50:14.381Z,1.93
2018-09-11T11:52:42.943Z,1.70
2018-09-11T11:55:11.865Z,2.30
2018-09-11T11:57:40.495Z,2.10
2018-09-11T12:00:09.341Z,2.33
2018-09-11T12:02:38.098Z,2.63
2018-09-11T12:05:06.949Z,2.53
2018-09-11T12:07:35.864Z,2.67
2018-09-11T12:10:05.225Z,2.20
2018-09-11T12:12:34.576Z,2.63
2018-09-11T12:15:03.355Z,2.73
2018-09-11T12:17:34.608Z,2.13
2018-09-11T12:20:05.234Z,1.80
2018-09-11T12:22:33.963Z,2.50
2018-09-11T12:25:02.662Z,2.57
2018-09-11T12:27:31.349Z,2.13
2018-09-11T12:30:00.088Z,2.17
2018-09-11T12:32:28.813Z,2.03
2018-09-11T12:34:57.702Z,1.87
2018-09-11T12:37:26.497Z,2.00
2018-09-11T12:39:55.306Z,2.60
2018-09-11T12:42:24.202Z,2.10
2018-09-11T12:44:53.016Z,2.00
2018-09-11T12:47:21.997Z,1.80
2018-09-11T12:49:50.546Z,1.70
2018-09-11T12:52:19.334Z,2.23
2018-09-11T12:54:48.078Z,2.10
2018-09-11T12:57:16.813Z,1.93
2018-09-11T12:59:45.521Z,2.03
2018-09-11T13:02:14.416Z,2.40
2018-09-11T13:04:43.240Z,2.13
2018-09-11T13:07:12.002Z,1.67
2018-09-11T13:09:40.537Z,1.70
2018-09-11T13:12:09.075Z,2.00
2018-09-11T13:14:37.572Z,2.00
2018-09-11T13:17:06.131Z,1.80
2018-09-11T13:19:34.641Z,1.80
2018-09-11T13:22:03.216Z,1.93
2018-09-11T13:24:31.792Z,2.40
2018-09-11T13:27:00.344Z,2.13
2018-09-11T13:29:28.856Z,1.90
2018-09-11T13:31:57.430Z,2.03
2018-09-11T13:34:26.361Z,2.00
2018-09-11T13:36:54.912Z,2.23
2018-09-11T13:39:23.718Z,1.70
2018-09-11T13:41:52.359Z,2.30
2018-09-11T13:44:20.967Z,2.27
2018-09-11T13:46:49.513Z,2.10
2018-09-11T13:49:19.811Z,1.77
2018-09-11T13:51:48.712Z,1.90
2018-09-11T13:54:17.469Z,1.93
2018-09-11T13:56:46.222Z,2.60
2018-09-11T13:59:15.085Z,2.40
2018-09-11T14:01:43.612Z,2.13
2018-09-11T14:04:12.124Z,1.90
2018-09-11T14:06:40.684Z,2.13
2018-09-11T14:09:11.694Z,2.47
2018-09-11T14:11:40.274Z,1.90
2018-09-11T14:14:09.084Z,2.10
2018-09-11T14:16:37.616Z,2.00
2018-09-11T14:19:06.269Z,2.20
2018-09-11T14:21:34.801Z,2.17
2018-09-11T14:24:03.316Z,2.30
2018-09-11T14:26:32.109Z,1.90
2018-09-11T14:29:00.640Z,2.00
2018-09-11T14:31:29.195Z,2.10
2018-09-11T14:33:57.719Z,2.00
2018-09-11T14:36:26.681Z,2.10
2018-09-11T14:38:55.207Z,2.03
2018-09-11T14:41:24.356Z,2.00
2018-09-11T14:43:52.913Z,1.90
2018-09-11T14:46:21.420Z,2.40
2018-09-11T14:48:49.948Z,2.23
2018-09-11T14:51:18.456Z,2.40
2018-09-11T14:53:47.007Z,2.43
2018-09-11T14:56:15.519Z,2.20
2018-09-11T14:58:44.060Z,2.37
2018-09-11T15:01:12.548Z,2.37
2018-09-11T15:03:41.115Z,2.27
2018-09-11T15:06:09.612Z,2.30
2018-09-11T15:08:38.187Z,2.67
2018-09-11T15:11:06.686Z,2.37
2018-09-11T15:13:35.252Z,2.13
2018-09-11T15:16:03.748Z,2.20
2018-09-11T15:18:32.309Z,2.30
2018-09-11T15:21:00.813Z,2.30
2018-09-11T15:23:29.346Z,2.53
2018-09-11T15:25:57.849Z,2.33
2018-09-11T15:28:26.695Z,2.27
2018-09-11T15:30:55.477Z,2.10
2018-09-11T15:33:24.217Z,2.27
2018-09-11T15:35:52.986Z,2.07
2018-09-11T15:38:22.268Z,2.67
2018-09-11T15:40:50.912Z,2.40
2018-09-11T15:43:19.734Z,2.60
2018-09-11T15:45:48.566Z,2.17
2018-09-11T15:48:17.327Z,2.13
2018-09-11T15:50:46.017Z,2.30
2018-09-11T15:53:14.789Z,2.23
2018-09-11T15:55:43.496Z,2.07
2018-09-11T15:58:12.351Z,2.33
2018-09-11T16:00:41.064Z,2.30
2018-09-11T16:03:09.729Z,2.17
2018-09-11T16:05:38.220Z,2.83
2018-09-11T16:08:06.846Z,2.47
2018-09-11T16:10:35.372Z,2.43
2018-09-11T16:13:03.982Z,2.23
2018-09-11T16:15:32.561Z,2.37
2018-09-11T16:18:01.139Z,2.57
2018-09-11T16:20:29.675Z,2.10
2018-09-11T16:22:58.191Z,2.33
2018-09-11T16:25:26.710Z,1.80
2018-09-11T16:27:55.263Z,2.80
2018-09-11T16:30:23.878Z,2.20
2018-09-11T16:32:52.368Z,2.60
2018-09-11T16:35:21.108Z,2.10
2018-09-11T16:37:49.614Z,2.47
2018-09-11T16:40:19.473Z,2.60
2018-09-11T16:42:52.726Z,2.90
2018-09-11T16:45:21.484Z,2.07
2018-09-11T16:47:49.967Z,3.17
2018-09-11T16:50:19.395Z,3.40
2018-09-11T16:52:47.879Z,2.87
2018-09-11T16:55:16.495Z,3.20
2018-09-11T16:57:45.219Z,3.00
2018-09-11T17:00:14.061Z,3.50
2018-09-11T17:02:42.940Z,2.83
2018-09-11T17:05:11.766Z,3.17
2018-09-11T17:07:40.527Z,3.07
2018-09-11T17:10:09.909Z,3.10
2018-09-11T17:12:38.415Z,2.30
2018-09-11T17:15:06.951Z,2.63
2018-09-11T17:17:35.472Z,2.13
2018-09-11T17:20:04.113Z,2.20
2018-09-11T17:22:32.588Z,2.10
2018-09-11T17:25:01.100Z,3.10
2018-09-11T17:27:29.633Z,7.97
2018-09-11T17:29:58.197Z,2.70
2018-09-11T17:32:26.680Z,2.50
2018-09-11T17:34:55.225Z,2.53
2018-09-11T17:37:23.736Z,2.33
2018-09-11T17:39:52.264Z,2.57
2018-09-11T17:42:21.183Z,2.30
2018-09-11T17:44:49.717Z,2.57
2018-09-11T17:47:18.953Z,2.60
2018-09-11T17:49:47.685Z,2.43
2018-09-11T17:52:16.438Z,2.50
2018-09-11T17:54:45.338Z,3.07
2018-09-11T17:57:14.098Z,3.07
2018-09-11T17:59:42.864Z,3.00
2018-09-11T18:02:11.584Z,3.30
2018-09-11T18:04:40.348Z,3.80
2018-09-11T18:07:09.084Z,3.30
2018-09-11T18:09:37.890Z,4.53
2018-09-11T18:12:06.908Z,6.63
2018-09-11T18:14:35.684Z,3.70
2018-09-11T18:17:04.402Z,3.20
2018-09-11T18:19:33.599Z,2.83
2018-09-11T18:22:02.528Z,2.90
2018-09-11T18:24:31.315Z,3.20
2018-09-11T18:27:00.075Z,3.47
2018-09-11T18:29:28.804Z,3.13
2018-09-11T18:31:57.594Z,2.83
2018-09-11T18:34:26.320Z,2.80
2018-09-11T18:36:55.077Z,2.80
2018-09-11T18:39:23.900Z,2.80
2018-09-11T18:41:52.605Z,2.60
2018-09-11T18:44:21.146Z,2.70
2018-09-11T18:46:49.663Z,2.03
2018-09-11T18:49:18.171Z,2.50
2018-09-11T18:51:46.821Z,4.37
2018-09-11T18:54:15.296Z,5.50
2018-09-11T18:56:43.861Z,3.20
2018-09-11T18:59:12.422Z,2.40
2018-09-11T19:01:40.952Z,3.10
2018-09-11T19:04:10.377Z,2.40
2018-09-11T19:06:39.220Z,2.73
2018-09-11T19:09:10.526Z,2.60
2018-09-11T19:11:39.164Z,2.30
2018-09-11T19:14:09.023Z,2.97
2018-09-11T19:16:37.602Z,3.50
2018-09-11T19:19:06.779Z,5.83
2018-09-11T19:21:35.880Z,3.43
2018-09-11T19:24:05.011Z,3.10
2018-09-11T19:26:33.717Z,2.60
2018-09-11T19:29:02.437Z,2.97
2018-09-11T19:31:31.229Z,2.53
2018-09-11T19:34:00.004Z,2.83
2018-09-11T19:36:29.566Z,2.67
2018-09-11T19:38:58.326Z,2.90
2018-09-11T19:41:26.891Z,2.30
2018-09-11T19:43:55.449Z,2.87
2018-09-11T19:46:24.046Z,2.60
2018-09-11T19:48:52.592Z,2.90
2018-09-11T19:51:21.169Z,2.57
2018-09-11T19:53:49.716Z,3.27
2018-09-11T19:56:19.294Z,3.20
2018-09-11T19:58:47.819Z,3.00
2018-09-11T20:01:16.375Z,3.03
2018-09-11T20:03:44.871Z,2.90
2018-09-11T20:06:13.418Z,3.10
2018-09-11T20:08:41.913Z,2.60
2018-09-11T20:11:10.491Z,2.97
2018-09-11T20:13:39.052Z,2.93
2018-09-11T20:16:07.665Z,2.73
2018-09-11T20:18:36.177Z,3.03
2018-09-11T20:21:04.793Z,2.50
2018-09-11T20:23:33.344Z,3.43
2018-09-11T20:26:01.887Z,3.40
2018-09-11T20:28:30.374Z,2.90
2018-09-11T20:30:58.897Z,2.33
2018-09-11T20:33:27.413Z,2.93
2018-09-11T20:35:55.969Z,2.97
2018-09-11T20:38:24.526Z,2.60
2018-09-11T20:40:53.052Z,3.03
2018-09-11T20:43:21.604Z,2.87
2018-09-11T20:45:50.349Z,3.53
2018-09-11T20:48:18.873Z,3.07
2018-09-11T20:50:47.411Z,3.00
2018-09-11T20:53:15.943Z,2.97
2018-09-11T20:55:44.483Z,3.10
2018-09-11T20:58:13.015Z,2.70
2018-09-11T21:00:41.516Z,3.20
2018-09-11T21:03:10.072Z,2.43
2018-09-11T21:05:38.615Z,2.40
2018-09-11T21:08:07.164Z,2.70
2018-09-11T21:10:35.698Z,2.73
2018-09-11T21:13:04.211Z,2.60
2018-09-11T21:15:32.699Z,2.83
2018-09-11T21:18:01.221Z,2.60
2018-09-11T21:20:29.753Z,2.83
2018-09-11T21:22:58.300Z,2.63
2018-09-11T21:25:26.796Z,2.97
2018-09-11T21:27:55.313Z,2.80
2018-09-11T21:30:23.804Z,2.67
2018-09-11T21:32:52.330Z,2.90
2018-09-11T21:35:20.820Z,3.40
2018-09-11T21:37:49.324Z,3.30
2018-09-11T21:40:17.829Z,3.07
2018-09-11T21:42:46.415Z,2.83
2018-09-11T21:45:14.916Z,2.87
2018-09-11T21:47:43.432Z,2.97
2018-09-11T21:50:11.923Z,3.03
2018-09-11T21:52:40.448Z,3.10
2018-09-11T21:55:09.007Z,2.70
2018-09-11T21:57:37.531Z,3.53
2018-09-11T22:00:08.689Z,2.73
2018-09-11T22:02:37.223Z,3.20
2018-09-11T22:05:06.292Z,3.00
2018-09-11T22:07:34.860Z,3.13
2018-09-11T22:10:03.425Z,2.77
2018-09-11T22:12:31.933Z,2.90
2018-09-11T22:15:00.475Z,3.03
2018-09-11T22:17:28.996Z,3.20
2018-09-11T22:19:57.536Z,2.63
2018-09-11T22:22:26.312Z,3.10
2018-09-11T22:24:55.183Z,2.57
2018-09-11T22:27:23.911Z,2.40
2018-09-11T22:29:52.641Z,2.50
2018-09-11T22:32:21.460Z,2.87
2018-09-11T22:34:50.127Z,2.77
2018-09-11T22:37:18.994Z,2.77
2018-09-11T22:39:47.664Z,2.70
2018-09-11T22:42:16.573Z,2.57
2018-09-11T22:44:45.289Z,2.80
2018-09-11T22:47:14.009Z,2.97
2018-09-11T22:49:42.770Z,2.77
2018-09-11T22:52:11.471Z,2.63
2018-09-11T22:54:40.203Z,3.10
2018-09-11T22:57:08.743Z,3.10
2018-09-11T22:59:37.268Z,2.97
2018-09-11T23:02:05.841Z,2.47
2018-09-11T23:04:34.359Z,3.03
2018-09-11T23:07:02.853Z,2.77
2018-09-11T23:09:31.428Z,2.80
2018-09-11T23:12:00.214Z,3.07
2018-09-11T23:14:29.038Z,3.10
2018-09-11T23:16:57.773Z,2.80
2018-09-11T23:19:26.518Z,2.83
2018-09-11T23:21:55.021Z,2.73
2018-09-11T23:24:23.531Z,2.90
2018-09-11T23:26:52.019Z,2.80
2018-09-11T23:29:20.529Z,2.90
2018-09-11T23:31:49.096Z,2.90
2018-09-11T23:34:17.635Z,2.63
2018-09-11T23:36:46.147Z,2.70
2018-09-11T23:39:14.696Z,2.93
2018-09-11T23:41:43.263Z,2.50
2018-09-11T23:44:11.931Z,3.27
2018-09-11T23:46:40.728Z,3.13
2018-09-11T23:49:09.505Z,2.70
2018-09-11T23:51:38.516Z,2.73
2018-09-11T23:54:07.388Z,3.10
2018-09-11T23:56:36.092Z,2.47
2018-09-11T23:59:04.940Z,2.80
